createdAt,value
2022-09-26T00:00:52.663Z,12.30
2022-09-26T00:01:53.451Z,13.30
2022-09-26T00:02:54.225Z,12.90
2022-09-26T00:03:54.814Z,12.70
2022-09-26T00:04:55.418Z,12.80
2022-09-26T00:05:56.085Z,12.70
2022-09-26T00:06:56.649Z,12.60
2022-09-26T00:07:57.204Z,12.40
2022-09-26T00:08:57.778Z,12.80
2022-09-26T00:09:58.431Z,12.60
2022-09-26T00:10:58.996Z,12.30
2022-09-26T00:11:59.564Z,12.10
2022-09-26T00:13:00.136Z,12.50
2022-09-26T00:14:00.702Z,13.00
2022-09-26T00:15:01.389Z,13.00
2022-09-26T00:16:01.973Z,13.40
2022-09-26T00:17:02.622Z,13.20
2022-09-26T00:18:03.214Z,13.50
2022-09-26T00:19:03.775Z,13.40
2022-09-26T00:20:04.438Z,13.60
2022-09-26T00:21:05.023Z,13.90
2022-09-26T00:22:05.590Z,13.60
2022-09-26T00:23:06.164Z,13.70
2022-09-26T00:24:06.731Z,12.80
2022-09-26T00:25:07.417Z,13.00
2022-09-26T00:26:07.983Z,14.10
2022-09-26T00:27:08.541Z,14.30
2022-09-26T00:28:09.106Z,14.20
2022-09-26T00:29:09.745Z,14.40
2022-09-26T00:30:10.470Z,14.30
2022-09-26T00:31:11.115Z,14.80
2022-09-26T00:32:11.755Z,15.50
2022-09-26T00:33:12.315Z,15.20
2022-09-26T00:34:12.883Z,15.70
2022-09-26T00:35:13.483Z,15.30
2022-09-26T00:36:14.077Z,16.10
2022-09-26T00:37:14.640Z,16.30
2022-09-26T00:38:15.202Z,16.50
2022-09-26T00:39:15.930Z,15.40
2022-09-26T00:40:16.738Z,16.00
2022-09-26T00:41:17.348Z,16.70
2022-09-26T00:42:17.918Z,16.90
2022-09-26T00:43:18.492Z,16.90
2022-09-26T00:44:19.067Z,17.20
2022-09-26T00:45:19.763Z,17.70
2022-09-26T00:46:20.405Z,16.90
2022-09-26T00:47:21.058Z,16.70
2022-09-26T00:48:21.623Z,15.60
2022-09-26T00:49:22.189Z,17.20
2022-09-26T00:50:22.916Z,17.80
2022-09-26T00:51:23.563Z,17.00
2022-09-26T00:52:24.131Z,16.40
2022-09-26T00:53:24.704Z,16.50
2022-09-26T00:54:25.273Z,17.00
2022-09-26T00:55:25.864Z,16.30
2022-09-26T00:56:26.424Z,16.70
2022-09-26T00:57:27.002Z,15.70
2022-09-26T00:58:27.571Z,16.20
2022-09-26T00:59:28.145Z,16.20
2022-09-26T01:00:29.051Z,15.80
2022-09-26T01:01:29.795Z,17.00
2022-09-26T01:02:30.555Z,16.50
2022-09-26T01:03:31.187Z,16.00
2022-09-26T01:04:31.757Z,15.70
2022-09-26T01:05:32.359Z,15.70
2022-09-26T01:06:32.978Z,15.00
2022-09-26T01:07:33.547Z,15.40
2022-09-26T01:08:34.124Z,15.60
2022-09-26T01:09:34.681Z,15.60
2022-09-26T01:10:35.354Z,15.20
2022-09-26T01:11:35.910Z,15.60
2022-09-26T01:12:36.482Z,15.50
2022-09-26T01:13:37.066Z,15.50
2022-09-26T01:14:37.633Z,16.30
2022-09-26T01:15:38.342Z,14.10
2022-09-26T01:16:39.030Z,15.20
2022-09-26T01:17:39.643Z,15.20
2022-09-26T01:18:40.209Z,15.40
2022-09-26T01:19:40.774Z,14.70
2022-09-26T01:20:41.378Z,15.80
2022-09-26T01:21:41.975Z,14.20
2022-09-26T01:22:42.536Z,14.80
2022-09-26T01:23:43.104Z,14.40
2022-09-26T01:24:43.667Z,14.70
2022-09-26T01:25:44.286Z,15.40
2022-09-26T01:26:44.845Z,15.20
2022-09-26T01:27:45.397Z,15.70
2022-09-26T01:28:45.958Z,14.60
2022-09-26T01:29:46.519Z,16.20
2022-09-26T01:30:47.192Z,15.50
2022-09-26T01:31:47.792Z,15.80
2022-09-26T01:32:48.356Z,14.80
2022-09-26T01:33:48.923Z,14.20
2022-09-26T01:34:49.495Z,14.60
2022-09-26T01:35:50.102Z,15.00
2022-09-26T01:36:50.693Z,14.60
2022-09-26T01:37:51.255Z,15.30
2022-09-26T01:38:51.824Z,15.20
2022-09-26T01:39:52.393Z,15.40
2022-09-26T01:40:53.081Z,15.50
2022-09-26T01:41:53.656Z,15.40
2022-09-26T01:42:54.227Z,16.50
2022-09-26T01:43:54.791Z,16.00
2022-09-26T01:44:55.358Z,16.30
2022-09-26T01:45:56.123Z,15.80
2022-09-26T01:46:56.730Z,16.00
2022-09-26T01:47:57.303Z,16.00
2022-09-26T01:48:57.873Z,16.50
2022-09-26T01:49:58.454Z,17.10
2022-09-26T01:50:59.182Z,16.60
2022-09-26T01:51:59.773Z,15.70
2022-09-26T01:53:00.353Z,16.30
2022-09-26T01:54:00.915Z,17.10
2022-09-26T01:55:01.478Z,17.30
2022-09-26T01:56:02.076Z,17.40
2022-09-26T01:57:02.637Z,16.30
2022-09-26T01:58:03.208Z,16.40
2022-09-26T01:59:03.777Z,17.00
2022-09-26T02:00:04.344Z,17.10
2022-09-26T02:01:05.624Z,18.10
2022-09-26T02:02:05.824Z,17.20
2022-09-26T02:03:06.439Z,16.40
2022-09-26T02:04:07.004Z,17.30
2022-09-26T02:05:07.575Z,17.90
2022-09-26T02:06:08.224Z,16.70
2022-09-26T02:07:08.814Z,17.30
2022-09-26T02:08:09.384Z,16.30
2022-09-26T02:09:09.947Z,17.00
2022-09-26T02:10:10.507Z,17.00
2022-09-26T02:11:11.170Z,18.10
2022-09-26T02:12:11.737Z,17.70
2022-09-26T02:13:12.320Z,16.70
2022-09-26T02:14:12.899Z,16.80
2022-09-26T02:15:13.474Z,17.30
2022-09-26T02:16:14.225Z,16.80
2022-09-26T02:17:14.843Z,17.70
2022-09-26T02:18:15.417Z,17.40
2022-09-26T02:19:16.043Z,16.60
2022-09-26T02:20:16.639Z,16.30
2022-09-26T02:21:17.262Z,16.50
2022-09-26T02:22:17.846Z,16.80
2022-09-26T02:23:18.407Z,16.50
2022-09-26T02:24:18.967Z,16.60
2022-09-26T02:25:19.541Z,15.80
2022-09-26T02:26:20.139Z,16.20
2022-09-26T02:27:20.704Z,16.60
2022-09-26T02:28:21.269Z,16.50
2022-09-26T02:29:21.831Z,16.80
2022-09-26T02:30:22.392Z,17.10
2022-09-26T02:31:23.094Z,16.40
2022-09-26T02:32:23.710Z,17.10
2022-09-26T02:33:24.281Z,17.80
2022-09-26T02:34:24.850Z,17.90
2022-09-26T02:35:25.407Z,17.70
2022-09-26T02:36:26.021Z,18.00
2022-09-26T02:37:26.622Z,16.60
2022-09-26T02:38:27.188Z,17.60
2022-09-26T02:39:27.757Z,17.70
2022-09-26T02:40:28.364Z,17.10
2022-09-26T02:41:29.129Z,16.60
2022-09-26T02:42:29.703Z,17.00
2022-09-26T02:43:30.298Z,17.10
2022-09-26T02:44:30.865Z,17.00
2022-09-26T02:45:31.503Z,18.30
2022-09-26T02:46:32.218Z,18.50
2022-09-26T02:47:32.781Z,18.20
2022-09-26T02:48:33.341Z,17.60
2022-09-26T02:49:33.903Z,17.80
2022-09-26T02:50:34.464Z,17.40
2022-09-26T02:51:35.135Z,18.30
2022-09-26T02:52:35.723Z,17.00
2022-09-26T02:53:36.296Z,16.80
2022-09-26T02:54:36.865Z,17.20
2022-09-26T02:55:37.426Z,16.90
2022-09-26T02:56:38.035Z,17.10
2022-09-26T02:57:38.605Z,17.70
2022-09-26T02:58:39.177Z,17.50
2022-09-26T02:59:39.741Z,17.10
2022-09-26T03:00:40.369Z,17.10
2022-09-26T03:01:41.167Z,17.10
2022-09-26T03:02:41.786Z,17.80
2022-09-26T03:03:42.410Z,17.90
2022-09-26T03:04:43.105Z,18.40
2022-09-26T03:05:43.744Z,17.20
2022-09-26T03:06:44.340Z,17.60
2022-09-26T03:07:44.923Z,17.90
2022-09-26T03:08:45.483Z,18.10
2022-09-26T03:09:46.038Z,17.60
2022-09-26T03:10:46.603Z,18.40
2022-09-26T03:11:47.198Z,17.80
2022-09-26T03:12:47.773Z,18.70
2022-09-26T03:13:48.345Z,18.50
2022-09-26T03:14:48.907Z,18.50
2022-09-26T03:15:49.484Z,19.00
2022-09-26T03:16:50.256Z,17.80
2022-09-26T03:17:50.865Z,18.70
2022-09-26T03:18:51.432Z,18.30
2022-09-26T03:19:51.996Z,19.00
2022-09-26T03:20:52.597Z,18.60
2022-09-26T03:22:16.564Z,19.70
2022-09-26T03:22:53.837Z,19.50
2022-09-26T03:23:54.404Z,19.10
2022-09-26T03:24:54.971Z,18.90
2022-09-26T03:25:55.534Z,19.50
2022-09-26T03:26:56.134Z,20.10
2022-09-26T03:27:56.702Z,20.30
2022-09-26T03:28:57.306Z,19.30
2022-09-26T03:29:57.872Z,18.60
2022-09-26T03:30:58.443Z,19.90
2022-09-26T03:31:59.093Z,20.40
2022-09-26T03:32:59.742Z,21.20
2022-09-26T03:34:00.359Z,20.30
2022-09-26T03:35:00.922Z,20.10
2022-09-26T03:36:01.502Z,21.20
2022-09-26T03:37:02.057Z,20.30
2022-09-26T03:38:02.655Z,22.00
2022-09-26T03:39:03.257Z,21.30
2022-09-26T03:40:03.824Z,21.20
2022-09-26T03:41:04.461Z,20.20
2022-09-26T03:42:05.137Z,21.80
2022-09-26T03:43:05.698Z,22.30
2022-09-26T03:44:06.302Z,21.70
2022-09-26T03:45:06.887Z,22.10
2022-09-26T03:46:07.573Z,21.90
2022-09-26T03:47:08.208Z,21.90
2022-09-26T03:48:08.777Z,22.80
2022-09-26T03:49:09.571Z,21.10
2022-09-26T03:50:10.136Z,21.00
2022-09-26T03:51:10.712Z,21.50
2022-09-26T03:52:11.275Z,21.00
2022-09-26T03:53:11.860Z,21.30
2022-09-26T03:54:12.522Z,21.20
2022-09-26T03:55:13.089Z,21.30
2022-09-26T03:56:13.613Z,20.90
2022-09-26T03:57:14.126Z,20.90
2022-09-26T03:58:14.639Z,21.00
2022-09-26T03:59:15.294Z,20.00
2022-09-26T04:00:15.921Z,20.80
2022-09-26T04:01:16.581Z,20.40
2022-09-26T04:02:17.335Z,21.50
2022-09-26T04:03:17.921Z,21.30
2022-09-26T04:04:18.516Z,21.20
2022-09-26T04:05:19.025Z,20.70
2022-09-26T04:06:19.539Z,21.30
2022-09-26T04:07:20.042Z,21.20
2022-09-26T04:08:20.577Z,21.30
2022-09-26T04:09:21.434Z,21.00
2022-09-26T04:10:21.712Z,21.10
2022-09-26T04:11:22.225Z,21.20
2022-09-26T04:12:22.731Z,21.90
2022-09-26T04:13:46.926Z,20.80
2022-09-26T04:14:24.131Z,20.30
2022-09-26T04:15:24.661Z,21.30
2022-09-26T04:16:25.205Z,21.00
2022-09-26T04:17:25.772Z,20.40
2022-09-26T04:18:26.286Z,19.60
2022-09-26T04:19:26.911Z,20.70
2022-09-26T04:20:27.417Z,20.70
2022-09-26T04:21:27.928Z,21.60
2022-09-26T04:22:28.437Z,20.50
2022-09-26T04:23:29.064Z,20.70
2022-09-26T04:24:29.612Z,20.60
2022-09-26T04:25:30.124Z,21.70
2022-09-26T04:26:30.776Z,21.50
2022-09-26T04:27:31.425Z,20.80
2022-09-26T04:28:31.941Z,20.40
2022-09-26T04:29:32.484Z,19.40
2022-09-26T04:30:33.022Z,19.60
2022-09-26T04:31:33.615Z,20.20
2022-09-26T04:32:34.145Z,21.40
2022-09-26T04:33:38.024Z,21.30
2022-09-26T04:34:35.257Z,19.00
2022-09-26T04:35:36.586Z,19.90
2022-09-26T04:36:36.609Z,19.30
2022-09-26T04:37:37.380Z,19.80
2022-09-26T04:38:37.970Z,19.00
2022-09-26T04:39:38.714Z,18.90
2022-09-26T04:40:42.677Z,18.90
2022-09-26T04:41:39.859Z,17.60
2022-09-26T04:42:40.375Z,19.30
2022-09-26T04:43:41.449Z,17.90
2022-09-26T04:44:50.521Z,17.70
2022-09-26T04:45:42.291Z,17.70
2022-09-26T04:46:42.848Z,17.60
2022-09-26T04:47:44.764Z,17.10
2022-09-26T04:48:45.916Z,18.80
2022-09-26T04:49:45.095Z,18.80
2022-09-26T04:50:45.601Z,18.80
2022-09-26T04:51:47.780Z,19.50
2022-09-26T04:52:47.545Z,18.30
2022-09-26T04:53:48.180Z,18.50
2022-09-26T04:54:48.789Z,18.90
2022-09-26T04:55:49.293Z,18.50
2022-09-26T04:56:49.810Z,17.20
2022-09-26T04:57:50.548Z,16.10
2022-09-26T04:58:51.392Z,16.90
2022-09-26T04:59:51.941Z,16.50
2022-09-26T05:00:52.540Z,15.00
2022-09-26T05:01:53.170Z,13.10
2022-09-26T05:02:53.717Z,13.60
2022-09-26T05:03:54.255Z,12.80
2022-09-26T05:04:54.868Z,11.90
2022-09-26T05:06:00.847Z,11.50
2022-09-26T05:06:58.516Z,11.60
2022-09-26T05:07:58.470Z,13.40
2022-09-26T05:08:58.742Z,12.40
2022-09-26T05:09:58.784Z,13.80
2022-09-26T05:10:59.298Z,14.80
2022-09-26T05:11:59.850Z,15.30
2022-09-26T05:13:04.451Z,17.50
2022-09-26T05:14:06.292Z,16.60
2022-09-26T05:15:06.591Z,17.90
2022-09-26T05:16:02.427Z,17.40
2022-09-26T05:17:05.486Z,17.40
2022-09-26T05:18:04.262Z,16.10
2022-09-26T05:19:04.807Z,15.30
2022-09-26T05:20:05.687Z,15.50
2022-09-26T05:21:23.655Z,16.00
2022-09-26T05:22:06.761Z,14.20
2022-09-26T05:23:07.272Z,13.90
2022-09-26T05:24:07.809Z,12.90
2022-09-26T05:25:08.376Z,12.40
2022-09-26T05:26:08.886Z,13.10
2022-09-26T05:27:09.400Z,11.40
2022-09-26T05:28:09.922Z,12.20
2022-09-26T05:29:10.606Z,11.40
2022-09-26T05:30:29.746Z,11.90
2022-09-26T05:31:12.239Z,12.10
2022-09-26T05:32:12.284Z,12.00
2022-09-26T05:33:12.800Z,11.90
2022-09-26T05:34:18.715Z,12.30
2022-09-26T05:35:14.181Z,12.20
2022-09-26T05:36:14.727Z,11.60
2022-09-26T05:37:15.242Z,12.00
2022-09-26T05:38:15.754Z,12.80
2022-09-26T05:39:16.288Z,13.00
2022-09-26T05:40:17.059Z,24.90
2022-09-26T05:41:17.623Z,12.30
2022-09-26T05:42:18.129Z,12.30
2022-09-26T05:43:18.646Z,11.80
2022-09-26T05:44:19.203Z,13.10
2022-09-26T05:45:19.748Z,12.70
2022-09-26T05:46:20.292Z,13.00
2022-09-26T05:47:20.910Z,12.90
2022-09-26T05:48:21.417Z,13.60
2022-09-26T05:49:25.761Z,12.70
2022-09-26T05:50:22.978Z,13.50
2022-09-26T05:51:23.667Z,13.20
2022-09-26T05:52:24.186Z,12.40
2022-09-26T05:53:24.704Z,12.70
2022-09-26T05:54:25.290Z,12.40
2022-09-26T05:55:25.889Z,13.30
2022-09-26T05:56:26.393Z,13.50
2022-09-26T05:57:26.902Z,13.30
2022-09-26T05:58:27.419Z,16.70
2022-09-26T05:59:27.938Z,15.70
2022-09-26T06:00:34.736Z,15.00
2022-09-26T06:01:29.499Z,13.20
2022-09-26T06:02:29.668Z,13.60
2022-09-26T06:09:17.336Z,14.70
2022-09-26T06:09:57.811Z,14.80
2022-09-26T06:10:58.806Z,15.70
2022-09-26T06:12:05.017Z,17.00
2022-09-26T06:12:59.808Z,17.30
2022-09-26T06:14:00.319Z,15.50
2022-09-26T06:15:00.891Z,15.90
2022-09-26T06:16:01.545Z,15.70
2022-09-26T06:17:02.099Z,15.80
2022-09-26T06:18:02.629Z,15.60
2022-09-26T06:19:03.149Z,16.70
2022-09-26T06:20:03.783Z,16.50
2022-09-26T06:21:04.309Z,16.30
2022-09-26T06:22:04.821Z,16.30
2022-09-26T06:23:05.378Z,17.20
2022-09-26T06:24:05.920Z,17.60
2022-09-26T06:25:06.587Z,18.30
2022-09-26T06:26:07.715Z,18.50
2022-09-26T06:27:07.736Z,17.20
2022-09-26T06:28:08.247Z,18.80
2022-09-26T06:29:08.871Z,18.10
2022-09-26T06:30:09.414Z,19.40
2022-09-26T06:31:10.051Z,19.10
2022-09-26T06:32:10.655Z,19.40
2022-09-26T06:33:11.176Z,19.90
2022-09-26T06:34:11.737Z,19.70
2022-09-26T06:35:12.355Z,21.00
2022-09-26T06:36:12.898Z,20.60
2022-09-26T06:37:13.666Z,20.80
2022-09-26T06:38:13.951Z,21.90
2022-09-26T06:39:14.642Z,20.60
2022-09-26T06:40:15.395Z,22.70
2022-09-26T06:41:15.944Z,22.60
2022-09-26T06:42:16.900Z,22.60
2022-09-26T06:43:17.409Z,23.00
2022-09-26T06:44:17.923Z,24.70
2022-09-26T06:45:18.469Z,23.00
2022-09-26T06:46:19.126Z,23.70
2022-09-26T06:47:19.757Z,21.80
2022-09-26T06:48:24.400Z,22.10
2022-09-26T06:49:21.247Z,20.80
2022-09-26T06:50:21.857Z,23.50
2022-09-26T06:51:22.471Z,23.80
2022-09-26T06:52:23.047Z,25.80
2022-09-26T06:53:23.559Z,23.10
2022-09-26T06:54:24.104Z,23.40
2022-09-26T06:55:24.733Z,23.70
2022-09-26T06:56:25.771Z,23.40
2022-09-26T06:57:25.785Z,21.50
2022-09-26T06:58:26.297Z,22.20
2022-09-26T06:59:26.811Z,23.70
2022-09-26T07:00:32.341Z,23.50
2022-09-26T07:01:34.521Z,23.60
2022-09-26T07:02:30.784Z,22.50
2022-09-26T07:03:29.616Z,21.90
2022-09-26T07:04:30.163Z,21.40
2022-09-26T07:05:30.735Z,22.10
2022-09-26T07:06:31.286Z,20.90
2022-09-26T07:07:31.793Z,21.10
2022-09-26T07:09:00.417Z,23.20
2022-09-26T07:09:33.222Z,21.20
2022-09-26T07:10:33.990Z,20.00
2022-09-26T07:11:56.304Z,21.80
2022-09-26T07:12:35.490Z,22.10
2022-09-26T07:13:35.993Z,20.80
2022-09-26T07:14:36.899Z,20.00
2022-09-26T07:15:37.440Z,19.00
2022-09-26T07:16:38.144Z,20.60
2022-09-26T07:17:38.684Z,20.50
2022-09-26T07:18:39.192Z,20.20
2022-09-26T07:19:39.709Z,20.30
2022-09-26T07:20:40.271Z,21.70
2022-09-26T07:21:40.779Z,20.40
2022-09-26T07:22:41.291Z,20.30
2022-09-26T07:23:41.796Z,21.70
2022-09-26T07:24:42.302Z,22.20
2022-09-26T07:25:45.224Z,22.70
2022-09-26T07:26:43.755Z,22.60
2022-09-26T07:27:44.279Z,23.30
2022-09-26T07:28:45.185Z,24.00
2022-09-26T07:29:45.577Z,23.90
2022-09-26T07:30:46.188Z,24.70
2022-09-26T07:31:46.930Z,24.50
2022-09-26T07:32:47.533Z,25.10
2022-09-26T07:33:48.044Z,25.70
2022-09-26T07:34:48.555Z,26.60
2022-09-26T07:35:49.112Z,27.00
2022-09-26T07:36:51.631Z,28.00
2022-09-26T07:37:50.148Z,28.30
2022-09-26T07:38:50.657Z,28.50
2022-09-26T07:39:54.117Z,27.90
2022-09-26T07:40:52.160Z,26.70
2022-09-26T07:41:52.710Z,28.10
2022-09-26T07:43:09.576Z,28.70
2022-09-26T07:44:53.344Z,30.30
2022-09-26T07:45:24.259Z,30.70
2022-09-26T07:45:55.844Z,31.10
2022-09-26T07:46:56.413Z,31.90
2022-09-26T07:47:56.951Z,31.20
2022-09-26T07:48:57.467Z,31.70
2022-09-26T07:49:58.078Z,33.00
2022-09-26T07:50:58.628Z,34.00
2022-09-26T07:51:59.264Z,34.90
2022-09-26T07:53:00.593Z,35.10
2022-09-26T07:54:00.727Z,36.70
2022-09-26T07:55:01.325Z,36.50
2022-09-26T07:56:01.921Z,38.20
2022-09-26T07:57:02.493Z,38.10
2022-09-26T07:58:03.050Z,40.00
2022-09-26T07:59:03.679Z,39.70
2022-09-26T08:00:04.191Z,42.50
2022-09-26T08:01:04.778Z,42.20
2022-09-26T08:02:05.450Z,43.10
2022-09-26T08:03:06.089Z,44.80
2022-09-26T08:04:07.107Z,44.90
2022-09-26T08:05:07.271Z,45.60
2022-09-26T08:06:07.824Z,48.50
2022-09-26T08:07:08.342Z,51.40
2022-09-26T08:08:08.866Z,49.40
2022-09-26T08:09:09.516Z,51.50
2022-09-26T08:10:10.051Z,52.40
2022-09-26T08:11:10.668Z,54.80
2022-09-26T08:12:11.169Z,55.70
2022-09-26T08:13:11.747Z,55.80
2022-09-26T08:14:12.985Z,55.80
2022-09-26T08:15:13.031Z,57.00
2022-09-26T08:16:13.647Z,58.90
2022-09-26T08:17:14.595Z,61.60
2022-09-26T08:18:15.221Z,65.50
2022-09-26T08:19:15.938Z,63.90
2022-09-26T08:20:16.543Z,62.10
2022-09-26T08:21:17.194Z,61.70
2022-09-26T08:22:17.855Z,66.70
2022-09-26T08:23:18.363Z,68.50
2022-09-26T08:24:19.164Z,68.50
2022-09-26T08:25:19.672Z,65.90
2022-09-26T08:26:21.012Z,68.20
2022-09-26T08:27:21.550Z,70.40
2022-09-26T08:28:21.648Z,71.00
2022-09-26T08:29:22.181Z,70.80
2022-09-26T08:30:23.023Z,71.40
2022-09-26T08:31:23.621Z,73.00
2022-09-26T08:32:24.207Z,73.80
2022-09-26T08:33:24.772Z,74.60
2022-09-26T08:34:26.011Z,75.30
2022-09-26T08:35:26.537Z,75.10
2022-09-26T08:36:27.079Z,74.80
2022-09-26T08:37:27.656Z,75.90
2022-09-26T08:38:28.280Z,75.20
2022-09-26T08:39:33.270Z,76.60
2022-09-26T08:40:30.158Z,72.90
2022-09-26T08:41:30.886Z,74.00
2022-09-26T08:42:40.097Z,72.60
2022-09-26T08:43:39.530Z,69.30
2022-09-26T08:44:34.068Z,69.00
2022-09-26T08:45:46.703Z,69.50
2022-09-26T08:46:34.809Z,70.20
2022-09-26T08:47:53.362Z,70.90
2022-09-26T08:48:47.842Z,73.60
2022-09-26T08:49:36.505Z,73.50
2022-09-26T08:50:40.341Z,71.80
2022-09-26T08:51:37.603Z,70.30
2022-09-26T08:52:38.481Z,70.20
2022-09-26T08:53:38.993Z,71.50
2022-09-26T08:54:39.512Z,68.00
2022-09-26T08:55:40.007Z,66.80
2022-09-26T08:56:40.589Z,64.60
2022-09-26T08:57:41.101Z,64.70
2022-09-26T08:58:41.610Z,64.90
2022-09-26T08:59:42.129Z,63.70
2022-09-26T09:00:42.639Z,64.60
2022-09-26T09:01:43.357Z,65.50
2022-09-26T09:02:44.810Z,67.10
2022-09-26T09:03:44.918Z,68.00
2022-09-26T09:04:49.116Z,67.80
2022-09-26T09:05:45.999Z,68.50
2022-09-26T09:06:49.716Z,68.10
2022-09-26T09:07:47.979Z,71.40
2022-09-26T09:08:48.041Z,70.00
2022-09-26T09:09:48.565Z,71.20
2022-09-26T09:10:49.435Z,69.00
2022-09-26T09:11:51.235Z,69.20
2022-09-26T09:12:50.980Z,69.00
2022-09-26T09:13:51.516Z,69.90
2022-09-26T09:15:13.855Z,69.70
2022-09-26T09:15:52.914Z,69.30
2022-09-26T09:16:54.032Z,68.50
2022-09-26T09:17:54.034Z,69.90
2022-09-26T09:18:54.566Z,67.10
2022-09-26T09:19:55.075Z,69.70
2022-09-26T09:20:55.591Z,69.30
2022-09-26T09:21:56.142Z,70.00
2022-09-26T09:22:56.667Z,70.60
2022-09-26T09:23:57.188Z,68.40
2022-09-26T09:24:57.701Z,65.50
2022-09-26T09:27:52.244Z,67.20
2022-09-26T09:28:05.499Z,70.10
2022-09-26T09:29:10.245Z,70.20
2022-09-26T09:30:01.517Z,70.00
2022-09-26T09:31:02.190Z,68.20
2022-09-26T09:32:05.169Z,67.40
2022-09-26T09:33:05.083Z,67.40
2022-09-26T09:34:04.655Z,61.60
2022-09-26T09:35:05.597Z,65.80
2022-09-26T09:36:07.220Z,63.80
2022-09-26T09:37:06.852Z,61.70
2022-09-26T09:38:08.506Z,66.10
2022-09-26T09:39:08.339Z,59.60
2022-09-26T09:40:08.965Z,59.40
2022-09-26T09:41:09.476Z,59.50
2022-09-26T09:42:12.211Z,60.50
2022-09-26T09:43:10.708Z,54.00
2022-09-26T09:44:11.220Z,55.90
2022-09-26T09:45:11.726Z,51.50
2022-09-26T09:46:12.298Z,50.60
2022-09-26T09:47:12.861Z,48.20
2022-09-26T09:48:13.379Z,50.50
2022-09-26T09:49:13.894Z,47.70
2022-09-26T09:50:14.402Z,46.80
2022-09-26T09:51:14.916Z,44.40
2022-09-26T09:52:15.468Z,46.20
2022-09-26T09:53:15.974Z,48.50
2022-09-26T09:54:16.490Z,48.40
2022-09-26T09:55:20.059Z,50.00
2022-09-26T09:56:17.674Z,48.20
2022-09-26T09:57:18.249Z,49.10
2022-09-26T09:58:18.758Z,49.10
2022-09-26T09:59:19.265Z,50.50
2022-09-26T10:00:19.778Z,50.50
2022-09-26T10:01:38.773Z,49.60
2022-09-26T10:04:09.752Z,51.20
2022-09-26T10:05:11.264Z,51.00
2022-09-26T10:06:43.960Z,50.00
2022-09-26T10:07:12.632Z,49.60
2022-09-26T10:08:13.279Z,51.60
2022-09-26T10:09:38.844Z,50.00
2022-09-26T10:10:14.815Z,52.90
2022-09-26T10:11:15.400Z,52.20
2022-09-26T10:12:15.908Z,53.70
2022-09-26T10:13:20.650Z,49.30
2022-09-26T10:14:17.162Z,49.80
2022-09-26T10:15:20.661Z,49.50
2022-09-26T10:16:18.306Z,52.00
2022-09-26T10:17:18.822Z,54.10
2022-09-26T10:18:24.793Z,55.30
2022-09-26T10:19:20.154Z,53.90
2022-09-26T10:20:20.667Z,54.00
2022-09-26T10:21:21.173Z,53.40
2022-09-26T10:22:21.688Z,52.90
2022-09-26T10:23:22.360Z,52.30
2022-09-26T10:24:22.874Z,52.00
2022-09-26T10:25:23.394Z,51.10
2022-09-26T10:26:26.558Z,53.40
2022-09-26T10:27:24.758Z,52.70
2022-09-26T10:28:25.330Z,54.40
2022-09-26T10:29:25.846Z,53.60
2022-09-26T10:30:26.371Z,54.50
2022-09-26T10:31:26.979Z,52.20
2022-09-26T10:32:27.545Z,52.50
2022-09-26T10:33:28.093Z,52.40
2022-09-26T10:34:31.460Z,53.50
2022-09-26T10:35:29.467Z,53.40
2022-09-26T10:36:29.988Z,52.70
2022-09-26T10:37:30.503Z,53.20
2022-09-26T10:38:31.067Z,52.50
2022-09-26T10:39:31.587Z,52.30
2022-09-26T10:40:32.145Z,50.20
2022-09-26T10:41:32.682Z,53.50
2022-09-26T10:42:33.200Z,50.10
2022-09-26T10:43:33.778Z,51.80
2022-09-26T10:44:34.298Z,51.30
2022-09-26T10:45:34.811Z,50.80
2022-09-26T10:46:35.440Z,51.00
2022-09-26T10:47:35.985Z,52.10
2022-09-26T10:48:36.535Z,51.80
2022-09-26T10:49:37.051Z,52.00
2022-09-26T10:50:37.568Z,51.30
2022-09-26T10:51:38.089Z,51.00
2022-09-26T10:52:38.604Z,50.70
2022-09-26T10:53:39.222Z,52.10
2022-09-26T10:54:39.729Z,52.10
2022-09-26T10:55:40.249Z,51.00
2022-09-26T10:56:40.771Z,50.70
2022-09-26T10:57:41.285Z,48.70
2022-09-26T10:58:41.865Z,49.40
2022-09-26T10:59:42.383Z,51.20
2022-09-26T11:00:42.902Z,49.00
2022-09-26T11:01:43.549Z,50.10
2022-09-26T11:02:44.129Z,49.90
2022-09-26T11:03:44.900Z,51.10
2022-09-26T11:04:45.440Z,50.60
2022-09-26T11:05:45.958Z,50.50
2022-09-26T11:06:46.477Z,51.10
2022-09-26T11:07:46.994Z,49.50
2022-09-26T11:08:47.719Z,50.00
2022-09-26T11:09:48.287Z,50.70
2022-09-26T11:10:48.805Z,51.60
2022-09-26T11:11:49.330Z,50.80
2022-09-26T11:12:49.850Z,51.40
2022-09-26T11:13:50.486Z,51.50
2022-09-26T11:14:51.005Z,50.50
2022-09-26T11:15:51.607Z,50.70
2022-09-26T11:16:52.183Z,49.80
2022-09-26T11:17:52.702Z,50.90
2022-09-26T11:18:53.257Z,49.60
2022-09-26T11:19:55.060Z,50.60
2022-09-26T11:20:54.756Z,50.70
2022-09-26T11:21:55.278Z,48.50
2022-09-26T11:22:55.792Z,48.10
2022-09-26T11:23:56.353Z,47.00
2022-09-26T11:24:56.883Z,46.30
2022-09-26T11:25:58.304Z,45.40
2022-09-26T11:26:58.392Z,45.40
2022-09-26T11:27:58.912Z,44.70
2022-09-26T11:28:59.615Z,43.50
2022-09-26T11:30:00.159Z,41.40
2022-09-26T11:31:00.776Z,44.10
2022-09-26T11:32:01.361Z,41.60
2022-09-26T11:33:01.893Z,41.50
2022-09-26T11:34:02.457Z,40.70
2022-09-26T11:35:03.137Z,42.20
2022-09-26T11:36:03.831Z,43.80
2022-09-26T11:37:04.350Z,42.30
2022-09-26T11:38:04.867Z,40.00
2022-09-26T11:39:05.438Z,39.80
2022-09-26T11:40:09.522Z,39.70
2022-09-26T11:41:06.517Z,38.20
2022-09-26T11:42:07.033Z,39.20
2022-09-26T11:43:07.576Z,40.00
2022-09-26T11:44:08.169Z,40.70
2022-09-26T11:45:08.686Z,38.20
2022-09-26T11:46:09.258Z,37.80
2022-09-26T11:47:09.819Z,39.40
2022-09-26T11:48:13.285Z,40.50
2022-09-26T11:49:11.342Z,41.10
2022-09-26T11:50:11.862Z,39.40
2022-09-26T11:51:12.406Z,38.40
2022-09-26T11:52:12.937Z,37.60
2022-09-26T11:53:13.448Z,38.20
2022-09-26T11:54:14.224Z,40.10
2022-09-26T11:55:14.901Z,38.90
2022-09-26T11:56:15.415Z,37.20
2022-09-26T11:57:16.468Z,36.30
2022-09-26T11:58:16.953Z,37.00
2022-09-26T11:59:17.723Z,39.70
2022-09-26T12:00:18.249Z,41.60
2022-09-26T12:01:18.774Z,40.90
2022-09-26T12:02:19.427Z,37.70
2022-09-26T12:03:20.307Z,36.70
2022-09-26T12:04:21.188Z,36.30
2022-09-26T12:05:26.655Z,38.80
2022-09-26T12:06:22.591Z,41.30
2022-09-26T12:07:23.113Z,41.10
2022-09-26T12:08:23.634Z,40.90
2022-09-26T12:09:24.660Z,42.40
2022-09-26T12:10:24.681Z,38.90
2022-09-26T12:11:25.200Z,37.20
2022-09-26T12:12:25.731Z,38.20
2022-09-26T12:13:26.248Z,36.40
2022-09-26T12:14:26.875Z,37.00
2022-09-26T12:15:27.388Z,37.80
2022-09-26T12:16:27.952Z,37.00
2022-09-26T12:17:28.504Z,36.50
2022-09-26T12:18:29.017Z,39.20
2022-09-26T12:19:29.904Z,41.00
2022-09-26T12:20:30.492Z,41.40
2022-09-26T12:21:31.392Z,40.40
2022-09-26T12:22:31.923Z,37.10
2022-09-26T12:23:32.440Z,36.00
2022-09-26T12:24:32.995Z,38.80
2022-09-26T12:25:33.524Z,39.50
2022-09-26T12:26:34.033Z,38.40
2022-09-26T12:27:34.554Z,37.60
2022-09-26T12:28:35.076Z,35.50
2022-09-26T12:29:35.664Z,35.60
2022-09-26T12:30:36.173Z,38.50
2022-09-26T12:31:36.791Z,38.70
2022-09-26T12:32:37.387Z,37.60
2022-09-26T12:33:37.906Z,38.30
2022-09-26T12:34:38.456Z,35.10
2022-09-26T12:35:38.975Z,36.50
2022-09-26T12:36:39.498Z,39.80
2022-09-26T12:37:40.023Z,38.00
2022-09-26T12:38:40.545Z,39.60
2022-09-26T12:39:41.126Z,40.10
2022-09-26T12:40:41.702Z,40.40
2022-09-26T12:41:42.283Z,39.80
2022-09-26T12:42:42.797Z,40.10
2022-09-26T12:43:43.319Z,40.40
2022-09-26T12:44:43.903Z,42.30
2022-09-26T12:45:45.790Z,43.70
2022-09-26T12:46:45.109Z,45.40
2022-09-26T12:47:45.641Z,45.10
2022-09-26T12:48:46.218Z,44.90
2022-09-26T12:49:46.789Z,45.70
2022-09-26T12:50:47.319Z,47.70
2022-09-26T12:51:47.940Z,46.50
2022-09-26T12:52:48.440Z,48.10
2022-09-26T12:53:48.958Z,47.80
2022-09-26T12:54:49.577Z,50.20
2022-09-26T12:55:50.095Z,50.10
2022-09-26T12:56:50.610Z,50.20
2022-09-26T12:57:51.140Z,50.50
2022-09-26T12:58:51.657Z,50.60
2022-09-26T12:59:52.235Z,51.60
2022-09-26T13:00:52.751Z,51.40
2022-09-26T13:01:53.363Z,50.60
2022-09-26T13:02:53.995Z,49.50
2022-09-26T13:03:54.543Z,50.80
2022-09-26T13:04:55.289Z,51.70
2022-09-26T13:05:55.850Z,50.80
2022-09-26T13:07:17.866Z,50.80
2022-09-26T13:07:57.538Z,49.10
2022-09-26T13:08:58.045Z,52.10